Whale Watcher II — WDB8211 — position and weather

sailwx.info

Track history (hours):
 
Tides and Currents Weather Stations Pressure Air Temp Water Temp Dewpoint Dewpoint Depression Visibility Wind Speed Wind Dir Waves Ship Positions

Whale Watcher II

Owner: Ronald L. Robbins LLC, Cape May, NJ. More information available from US FCC via Universal Licensing System and Coast Guard Vessel Documentation Center.

Last reported at 2014-Nov-01 11:25 UTC. Time now 2014-Nov-01 11:47 UTC.
Position N 29°56' W 090°03'.

Length 22 m.

Type: Towing. MMSI: 367011790.

Date/timePositionNaut miles runAvg speedWind from/ knotsBaromVisibWave heightAir tempDewpointWater temp
2014-Nov-01 11:25N 29°56' W 090°03'3 3.0
2014-Nov-01 10:33N 29°57' W 090°01'3 0.2
2014-Oct-31 21:19N 29°55' W 090°04'0 0.0
2014-Oct-31 20:06N 29°55' W 090°04'0 0.0
2014-Oct-31 19:33N 29°55' W 090°04'0 0.0
2014-Oct-31 18:33N 29°55' W 090°04'0 0.0
2014-Oct-31 17:32N 29°55' W 090°04'0 0.0
2014-Oct-31 16:33N 29°55' W 090°04'1 1.2
2014-Oct-31 15:33N 29°55' W 090°05'  
2014-Oct-26 18:32N 29°59' W 090°01'1 1.0
2014-Oct-26 17:13N 29°60' W 090°01'0 0.0
2014-Oct-26 16:15N 29°60' W 090°01'0 0.0
2014-Oct-26 15:26N 29°60' W 090°01'0 0.0
2014-Oct-26 14:10N 29°60' W 090°01'0 0.0
2014-Oct-26 13:27N 29°60' W 090°01'0 0.0
2014-Oct-26 12:32N 29°60' W 090°01'0 0.0
2014-Oct-26 11:16N 29°60' W 090°01'0 0.0
2014-Oct-26 10:20N 29°60' W 090°01'0 0.0
2014-Oct-26 09:33N 29°60' W 090°01'0 0.0
2014-Oct-26 08:32N 29°60' W 090°01'0 0.0
2014-Oct-26 07:33N 29°60' W 090°01'0 0.0
2014-Oct-26 06:33N 29°60' W 090°01'0 0.0
2014-Oct-26 05:33N 29°60' W 090°01'0 0.0
2014-Oct-26 04:33N 29°60' W 090°01'0 0.0
2014-Oct-26 03:32N 29°60' W 090°01'0 0.0
2014-Oct-26 02:29N 29°60' W 090°01'0 0.0
2014-Oct-26 01:05N 29°60' W 090°01'2 0.1
2014-Oct-25 08:25N 30°00' W 089°58'  
2014-Oct-22 23:26N 30°00' W 089°58'3 3.5
2014-Oct-22 22:31N 29°58' W 090°01'0 0.0
2014-Oct-22 21:31N 29°58' W 090°01'1 0.6
2014-Oct-22 20:33N 29°58' W 090°02'0 0.3
2014-Oct-22 19:33N 29°58' W 090°02'0 0.0
2014-Oct-22 18:25N 29°58' W 090°02'1 0.6
2014-Oct-22 17:18N 29°57' W 090°01'  
Track history (hours):
 
Tides and Currents Weather Stations Pressure Air Temp Water Temp Dewpoint Dewpoint Depression Visibility Wind Speed Wind Dir Waves Ship Positions

Whale Watcher II

Owner: Ronald L. Robbins LLC, Cape May, NJ. More information available from US FCC via Universal Licensing System and Coast Guard Vessel Documentation Center.

Last reported at 2014-Nov-01 11:25 UTC. Time now 2014-Nov-01 11:47 UTC.
Position N 29°56' W 090°03'.

Length 22 m.

Type: Towing. MMSI: 367011790.

Date/timePositionNaut miles runAvg speedWind from/ knotsBaromVisibWave heightAir tempDewpointWater temp
2014-Nov-01 11:25N 29°56' W 090°03'3 3.0
2014-Nov-01 10:33N 29°57' W 090°01'3 0.2
2014-Oct-31 21:19N 29°55' W 090°04'0 0.0
2014-Oct-31 20:06N 29°55' W 090°04'0 0.0
2014-Oct-31 19:33N 29°55' W 090°04'0 0.0
2014-Oct-31 18:33N 29°55' W 090°04'0 0.0
2014-Oct-31 17:32N 29°55' W 090°04'0 0.0
2014-Oct-31 16:33N 29°55' W 090°04'1 1.2
2014-Oct-31 15:33N 29°55' W 090°05'  
2014-Oct-26 18:32N 29°59' W 090°01'1 1.0
2014-Oct-26 17:13N 29°60' W 090°01'0 0.0
2014-Oct-26 16:15N 29°60' W 090°01'0 0.0
2014-Oct-26 15:26N 29°60' W 090°01'0 0.0
2014-Oct-26 14:10N 29°60' W 090°01'0 0.0
2014-Oct-26 13:27N 29°60' W 090°01'0 0.0
2014-Oct-26 12:32N 29°60' W 090°01'0 0.0
2014-Oct-26 11:16N 29°60' W 090°01'0 0.0
2014-Oct-26 10:20N 29°60' W 090°01'0 0.0
2014-Oct-26 09:33N 29°60' W 090°01'0 0.0
2014-Oct-26 08:32N 29°60' W 090°01'0 0.0
2014-Oct-26 07:33N 29°60' W 090°01'0 0.0
2014-Oct-26 06:33N 29°60' W 090°01'0 0.0
2014-Oct-26 05:33N 29°60' W 090°01'0 0.0
2014-Oct-26 04:33N 29°60' W 090°01'0 0.0
2014-Oct-26 03:32N 29°60' W 090°01'0 0.0
2014-Oct-26 02:29N 29°60' W 090°01'0 0.0
2014-Oct-26 01:05N 29°60' W 090°01'2 0.1
2014-Oct-25 08:25N 30°00' W 089°58'  
2014-Oct-22 23:26N 30°00' W 089°58'3 3.5
2014-Oct-22 22:31N 29°58' W 090°01'0 0.0
2014-Oct-22 21:31N 29°58' W 090°01'1 0.6
2014-Oct-22 20:33N 29°58' W 090°02'0 0.3
2014-Oct-22 19:33N 29°58' W 090°02'0 0.0
2014-Oct-22 18:25N 29°58' W 090°02'1 0.6
2014-Oct-22 17:18N 29°57' W 090°01'  

Dump ship's entire track history